Rejestracja

Wszystkie dane podawane są w czasie UTC za wyjątkiem miejsc gdzie jest jednoznacznie podane, że jest inaczej. Dane podawane w serwisie mają charakter informacyjny!!!
Informacje w sprawie dostępu do serwisu pod numerem tel. +48 261-828-138
Informacja dla żołnierzy i pracowników wojska: Prosimy o niezwłoczną zmianę adresu e-mail w profilu użytkownika na pocztę w domenie @ron.mil.pl

Aktualna Pogoda
 
Pogoda w Polsce
9°C Szczecin 9°C Suwałki 8°C Warszawa 8°C Poznan
11°C Opole 9°C Kraków 8°C Rzeszów
Więcej miast w Polsce

Pogoda w Europie
10°C Berlin 4°C Paryz 4°C Bruksela 2°C Oslo
10°C Praga 12°C Zagrzeb
Więcej miast w Europie

Metary wojskowe test
METAR EPBC 180800Z 13012KT 8000 BKN008 09/07 Q1013=
METAR EPCE 180830Z 14010KT 5000 BR OVC007 08/07 Q1010 RMK 084 091 8/8=
METAR EPDA 180830Z 12011KT 8000 FEW009 SCT200 09/07 Q1009 RMK 090 087 4/1=
METAR EPDE 180830Z 11014KT 8000 SCT009 BKN011 10/08 Q1014 RMK 097 089 7/4=
METAR EPIR 180830Z 09016KT 3500 BR SCT006 BKN008 08/06 Q1010 RMK 080 088 6/4=
METAR EPKS 180830Z 10010KT 9999 BKN100 08/08 Q1008 RMK 076 100 6/6=
METAR EPLK 180830Z 12013KT 9999 NSC 10/06 Q1010 RMK 096 080 6/6=
METAR EPLY 180830Z 10004KT 9999 NSC 09/08 Q1010 RMK 091 090 6/6=
METAR EPMB 180830Z 15012KT 9999 BKN013 10/09 Q1012 RMK 102 091 7/7=
METAR EPMI 180830Z 12012KT 5000 BR SCT007 BKN090 08/06 Q1008 RMK 077 092 5/3=
METAR EPMM 180830Z 14011G21KT 100V170 9999 BKN008 09/07 Q1014 RMK 091 089 7/7=
SPECI EPNA 180837Z 12015KT 3500 BR BKN005 BKN010 08/07 Q1009 RMK 077 092 7/6=
METAR EPOK 180830Z 15013KT 9000 OVC009 09/07 Q1011 RMK 093 088 8/8=
METAR EPPR 180830Z 12004KT 6000 OVC013 09/08 Q1012 RMK 090 090 8/8=
METAR EPPW 180830Z 11010KT 8000 NSC 07/07 Q1009 RMK 074 094 7/7=
METAR EPSN 180830Z 09014KT 5000 BR FEW008 09/07 Q1008 RMK 085 088 2/2=
METAR EPTM 180830Z 13008KT 9999 NSC 08/07 Q1012 RMK 079 091 6/6=


 

Prawa autorskie©2007 SSH SZ RP. Wszelkie prawa zastrzeżone.